CPA531 RJGG-RCTP
Flight info
| Callsign | CPA531 |
|---|---|
| Flight time | N/A |
| Altitude | 40000 |
| Route | ISE3 KEC Y24 KOSHI Y50 IGMON A1 DRAKE DRAKE1A |
| Aircraft | A359/H-SDE2E3GHIJ1J3J4J5LM1ORWXY/LB1D1 |
Departure
| Time | N/A |
|---|---|
| Airport | Chubu Centrair International Airport (RJGG) |
Arrival
| Time | 2026-05-05 22:42 |
|---|---|
| Airport | Taiwan Taoyuan International Airport (RCTP) |
| Time | Latitude | Longitude | Altitude | Speed | Heading |
|---|---|---|---|---|---|
| 2026-05-05 22:11 | 25.95143 | 122.50837 | 40003 ft | 440 kts | 232° |
| 2026-05-05 22:11 | 25.93140 | 122.48267 | 40005 ft | 440 kts | 232° |
| 2026-05-05 22:12 | 25.89136 | 122.43120 | 40002 ft | 440 kts | 233° |
| 2026-05-05 22:12 | 25.85126 | 122.37966 | 40003 ft | 440 kts | 233° |
| 2026-05-05 22:13 | 25.81117 | 122.32823 | 39756 ft | 441 kts | 233° |
| 2026-05-05 22:13 | 25.79108 | 122.30247 | 39206 ft | 442 kts | 233° |
| 2026-05-05 22:13 | 25.77092 | 122.27666 | 38571 ft | 442 kts | 233° |
| 2026-05-05 22:13 | 25.75080 | 122.25090 | 37827 ft | 442 kts | 233° |
| 2026-05-05 22:14 | 25.73070 | 122.22517 | 37105 ft | 441 kts | 233° |
| 2026-05-05 22:14 | 25.71065 | 122.19953 | 36408 ft | 441 kts | 233° |
| 2026-05-05 22:14 | 25.69050 | 122.17377 | 35727 ft | 441 kts | 232° |
| 2026-05-05 22:14 | 25.67038 | 122.14808 | 35065 ft | 441 kts | 232° |
| 2026-05-05 22:15 | 25.65051 | 122.12271 | 34416 ft | 442 kts | 232° |
| 2026-05-05 22:15 | 25.63075 | 122.09669 | 33670 ft | 441 kts | 235° |
| 2026-05-05 22:15 | 25.61476 | 122.06791 | 32778 ft | 438 kts | 246° |
| 2026-05-05 22:15 | 25.60444 | 122.03614 | 31910 ft | 438 kts | 254° |
| 2026-05-05 22:16 | 25.59617 | 122.00366 | 31064 ft | 436 kts | 255° |
| 2026-05-05 22:16 | 25.58815 | 121.97147 | 30241 ft | 430 kts | 254° |
| 2026-05-05 22:16 | 25.58017 | 121.93968 | 29313 ft | 427 kts | 254° |
| 2026-05-05 22:16 | 25.57223 | 121.90829 | 28403 ft | 422 kts | 254° |
| 2026-05-05 22:17 | 25.56434 | 121.87724 | 27589 ft | 415 kts | 254° |
| 2026-05-05 22:17 | 25.55659 | 121.84683 | 26829 ft | 404 kts | 254° |
| 2026-05-05 22:17 | 25.54906 | 121.81735 | 26099 ft | 392 kts | 254° |
| 2026-05-05 22:17 | 25.54174 | 121.78876 | 25404 ft | 381 kts | 254° |
| 2026-05-05 22:18 | 25.53463 | 121.76096 | 24700 ft | 371 kts | 254° |
| 2026-05-05 22:18 | 25.52764 | 121.73373 | 24027 ft | 363 kts | 254° |
| 2026-05-05 22:18 | 25.52081 | 121.70710 | 23325 ft | 355 kts | 254° |
| 2026-05-05 22:18 | 25.51422 | 121.68144 | 22547 ft | 348 kts | 254° |
| 2026-05-05 22:19 | 25.50755 | 121.65550 | 21787 ft | 341 kts | 254° |
| 2026-05-05 22:19 | 25.50110 | 121.63044 | 21047 ft | 339 kts | 254° |
| 2026-05-05 22:19 | 25.49471 | 121.60560 | 20436 ft | 340 kts | 254° |
| 2026-05-05 22:19 | 25.48802 | 121.58056 | 19836 ft | 339 kts | 251° |
| 2026-05-05 22:20 | 25.47727 | 121.55769 | 19252 ft | 327 kts | 243° |
| 2026-05-05 22:20 | 25.46946 | 121.53462 | 18678 ft | 315 kts | 258° |
| 2026-05-05 22:20 | 25.46919 | 121.51075 | 18091 ft | 309 kts | 277° |
| 2026-05-05 22:20 | 25.47722 | 121.48879 | 17459 ft | 312 kts | 298° |
| 2026-05-05 22:21 | 25.49284 | 121.47164 | 16942 ft | 325 kts | 319° |
| 2026-05-05 22:21 | 25.51339 | 121.46087 | 16452 ft | 339 kts | 337° |
| 2026-05-05 22:21 | 25.53726 | 121.45820 | 15966 ft | 353 kts | 358° |
| 2026-05-05 22:21 | 25.56123 | 121.46580 | 15474 ft | 367 kts | 23° |
| 2026-05-05 22:22 | 25.58135 | 121.48343 | 15015 ft | 374 kts | 45° |
| 2026-05-05 22:22 | 25.59816 | 121.50549 | 14547 ft | 375 kts | 50° |
| 2026-05-05 22:22 | 25.61167 | 121.53006 | 14091 ft | 375 kts | 66° |
| 2026-05-05 22:22 | 25.61777 | 121.55796 | 13618 ft | 371 kts | 90° |
| 2026-05-05 22:23 | 25.61380 | 121.58568 | 13099 ft | 360 kts | 116° |
| 2026-05-05 22:23 | 25.60062 | 121.60835 | 12603 ft | 344 kts | 141° |
| 2026-05-05 22:23 | 25.58102 | 121.62208 | 12096 ft | 326 kts | 167° |
| 2026-05-05 22:23 | 25.55954 | 121.62463 | 11608 ft | 308 kts | 194° |
| 2026-05-05 22:24 | 25.54012 | 121.61593 | 11123 ft | 293 kts | 221° |
| 2026-05-05 22:24 | 25.52808 | 121.59918 | 10657 ft | 278 kts | 247° |
| 2026-05-05 22:24 | 25.52086 | 121.57967 | 10185 ft | 270 kts | 247° |
| 2026-05-05 22:24 | 25.51106 | 121.56178 | 9631 ft | 276 kts | 233° |
| 2026-05-05 22:25 | 25.49706 | 121.54687 | 9034 ft | 282 kts | 223° |
| 2026-05-05 22:25 | 25.48395 | 121.53526 | 8577 ft | 284 kts | 221° |
| 2026-05-05 22:25 | 25.46834 | 121.52186 | 8014 ft | 285 kts | 220° |
| 2026-05-05 22:25 | 25.45258 | 121.50841 | 7495 ft | 286 kts | 220° |
| 2026-05-05 22:26 | 25.43677 | 121.49497 | 6986 ft | 286 kts | 219° |
| 2026-05-05 22:26 | 25.42121 | 121.48177 | 6547 ft | 284 kts | 219° |
| 2026-05-05 22:26 | 25.40516 | 121.46909 | 6077 ft | 283 kts | 212° |
| 2026-05-05 22:26 | 25.38647 | 121.46233 | 5609 ft | 285 kts | 188° |
| 2026-05-05 22:27 | 25.36669 | 121.46097 | 5144 ft | 284 kts | 183° |
| 2026-05-05 22:27 | 25.34702 | 121.46033 | 4772 ft | 280 kts | 183° |
| 2026-05-05 22:27 | 25.32802 | 121.45964 | 4690 ft | 267 kts | 183° |
| 2026-05-05 22:27 | 25.30948 | 121.45888 | 4692 ft | 267 kts | 183° |
| 2026-05-05 22:28 | 25.29095 | 121.45808 | 4700 ft | 267 kts | 184° |
| 2026-05-05 22:28 | 25.27244 | 121.45711 | 4694 ft | 266 kts | 186° |
| 2026-05-05 22:28 | 25.25525 | 121.45052 | 4701 ft | 264 kts | 217° |
| 2026-05-05 22:28 | 25.24261 | 121.43602 | 4704 ft | 261 kts | 232° |
| 2026-05-05 22:29 | 25.23141 | 121.42016 | 4709 ft | 262 kts | 232° |
| 2026-05-05 22:29 | 25.21989 | 121.40447 | 4707 ft | 263 kts | 231° |
| 2026-05-05 22:29 | 25.20834 | 121.38919 | 4708 ft | 262 kts | 230° |
| 2026-05-05 22:29 | 25.19667 | 121.37402 | 4622 ft | 251 kts | 230° |
| 2026-05-05 22:30 | 25.18578 | 121.35992 | 4391 ft | 232 kts | 230° |
| 2026-05-05 22:30 | 25.17544 | 121.34662 | 3890 ft | 227 kts | 229° |
| 2026-05-05 22:30 | 25.16501 | 121.33331 | 3171 ft | 232 kts | 229° |
| 2026-05-05 22:30 | 25.15434 | 121.31980 | 2440 ft | 235 kts | 228° |
| 2026-05-05 22:31 | 25.14359 | 121.30612 | 1706 ft | 236 kts | 228° |
| 2026-05-05 22:31 | 25.13289 | 121.29238 | 1028 ft | 235 kts | 228° |
| 2026-05-05 22:31 | 25.12244 | 121.27912 | 665 ft | 222 kts | 229° |
| 2026-05-05 22:31 | 25.11306 | 121.26708 | 577 ft | 197 kts | 229° |
| 2026-05-05 22:32 | 25.10724 | 121.25967 | 464 ft | 180 kts | 229° |
| 2026-05-05 22:32 | 25.09697 | 121.24663 | 759 ft | 167 kts | 229° |
| 2026-05-05 22:32 | 25.08928 | 121.23703 | 1146 ft | 173 kts | 226° |
| 2026-05-05 22:32 | 25.08407 | 121.22979 | 1265 ft | 191 kts | 236° |
| 2026-05-05 22:33 | 25.08158 | 121.21461 | 1459 ft | 218 kts | 281° |
| 2026-05-05 22:33 | 25.08858 | 121.19955 | 2045 ft | 228 kts | 313° |
| 2026-05-05 22:33 | 25.10003 | 121.19108 | 2555 ft | 236 kts | 339° |
| 2026-05-05 22:33 | 25.11627 | 121.18926 | 3203 ft | 244 kts | 8° |
| 2026-05-05 22:34 | 25.13143 | 121.19588 | 3374 ft | 229 kts | 36° |
| 2026-05-05 22:34 | 25.14242 | 121.20838 | 3121 ft | 230 kts | 52° |
| 2026-05-05 22:34 | 25.15264 | 121.22340 | 3020 ft | 258 kts | 51° |
| 2026-05-05 22:34 | 25.16503 | 121.23833 | 3011 ft | 267 kts | 46° |
| 2026-05-05 22:35 | 25.17821 | 121.25294 | 3009 ft | 269 kts | 45° |
| 2026-05-05 22:35 | 25.19146 | 121.26743 | 3007 ft | 269 kts | 45° |
| 2026-05-05 22:35 | 25.20481 | 121.28191 | 3006 ft | 269 kts | 45° |
| 2026-05-05 22:35 | 25.21817 | 121.29636 | 3007 ft | 268 kts | 45° |
| 2026-05-05 22:36 | 25.23154 | 121.31075 | 3001 ft | 268 kts | 45° |
| 2026-05-05 22:36 | 25.24452 | 121.32487 | 2993 ft | 252 kts | 47° |
| 2026-05-05 22:36 | 25.25281 | 121.34086 | 2998 ft | 233 kts | 77° |
| 2026-05-05 22:36 | 25.25263 | 121.35803 | 3010 ft | 223 kts | 107° |
| 2026-05-05 22:37 | 25.24467 | 121.37201 | 2999 ft | 217 kts | 139° |
| 2026-05-05 22:37 | 25.23129 | 121.37893 | 2980 ft | 207 kts | 172° |
| 2026-05-05 22:37 | 25.21744 | 121.37678 | 3017 ft | 198 kts | 199° |
| 2026-05-05 22:37 | 25.20461 | 121.37170 | 3010 ft | 195 kts | 197° |
| 2026-05-05 22:38 | 25.19222 | 121.36610 | 2938 ft | 195 kts | 210° |
| 2026-05-05 22:38 | 25.18226 | 121.35605 | 2712 ft | 194 kts | 229° |
| 2026-05-05 22:38 | 25.17379 | 121.34445 | 2431 ft | 193 kts | 228° |
| 2026-05-05 22:38 | 25.16506 | 121.33341 | 2161 ft | 188 kts | 226° |
| 2026-05-05 22:39 | 25.15658 | 121.32271 | 1909 ft | 181 kts | 227° |
| 2026-05-05 22:39 | 25.14867 | 121.31255 | 1681 ft | 170 kts | 227° |
| 2026-05-05 22:39 | 25.14098 | 121.30274 | 1444 ft | 167 kts | 227° |
| 2026-05-05 22:39 | 25.13364 | 121.29336 | 1238 ft | 155 kts | 226° |
| 2026-05-05 22:40 | 25.12679 | 121.28463 | 1035 ft | 145 kts | 226° |
| 2026-05-05 22:40 | 25.12056 | 121.27668 | 869 ft | 130 kts | 220° |
| 2026-05-05 22:40 | 25.11459 | 121.26924 | 702 ft | 132 kts | 230° |
| 2026-05-05 22:40 | 25.10878 | 121.26141 | 565 ft | 129 kts | 228° |
| 2026-05-05 22:41 | 25.10293 | 121.25404 | 361 ft | 126 kts | 228° |
| 2026-05-05 22:41 | 25.09723 | 121.24690 | 214 ft | 126 kts | 228° |
| 2026-05-05 22:41 | 25.09148 | 121.23964 | 105 ft | 121 kts | 230° |
| 2026-05-05 22:41 | 25.08671 | 121.23353 | 107 ft | 90 kts | 229° |
| 2026-05-05 22:42 | 25.08308 | 121.22893 | 106 ft | 70 kts | 229° |
| 2026-05-05 22:42 | 25.08078 | 121.22695 | 107 ft | 26 kts | 201° |
| 2026-05-05 22:42 | 25.07948 | 121.22661 | 107 ft | 15 kts | 163° |
| 2026-05-05 22:42 | 25.07941 | 121.22748 | 106 ft | 14 kts | 49° |
| 2026-05-05 22:43 | 25.08010 | 121.22837 | 107 ft | 18 kts | 49° |
| 2026-05-05 22:43 | 25.08116 | 121.22972 | 107 ft | 25 kts | 49° |
| 2026-05-05 22:43 | 25.08236 | 121.23125 | 107 ft | 28 kts | 49° |
| 2026-05-05 22:43 | 25.08368 | 121.23292 | 105 ft | 30 kts | 48° |
| 2026-05-05 22:44 | 25.08502 | 121.23463 | 107 ft | 28 kts | 49° |
| 2026-05-05 22:44 | 25.08636 | 121.23634 | 107 ft | 28 kts | 49° |
| 2026-05-05 22:44 | 25.08734 | 121.23763 | 107 ft | 17 kts | 63° |
| 2026-05-05 22:44 | 25.08679 | 121.23869 | 107 ft | 18 kts | 139° |
| 2026-05-05 22:45 | 25.08574 | 121.23968 | 107 ft | 22 kts | 139° |
| 2026-05-05 22:45 | 25.08454 | 121.24083 | 106 ft | 24 kts | 140° |
| 2026-05-05 22:45 | 25.08322 | 121.24206 | 107 ft | 26 kts | 138° |
| 2026-05-05 22:45 | 25.08189 | 121.24331 | 107 ft | 18 kts | 148° |
| 2026-05-05 22:46 | 25.08105 | 121.24282 | 105 ft | 16 kts | 229° |
| 2026-05-05 22:46 | 25.08029 | 121.24183 | 107 ft | 18 kts | 229° |
| 2026-05-05 22:46 | 25.07958 | 121.24089 | 107 ft | 8 kts | 241° |
| 2026-05-05 22:46 | 25.07966 | 121.24032 | 107 ft | 8 kts | 314° |
| 2026-05-05 22:47 | 25.08015 | 121.23984 | 107 ft | 6 kts | 318° |
| 2026-05-05 22:47 | 25.08032 | 121.23967 | 107 ft | 3 kts | 319° |
| 2026-05-05 22:47 | 25.08033 | 121.23967 | 107 ft | 0 kts | 319° |